.
WxDataArchive / Data Records for 2014-10-20
2014-10-19 October 2014 2014-10-21

Data Records for Monday, 20 October 2014

Time	Temp	Chill	HIndex	Humid	Dewpt	 Wind 	HiWind	WindDir	Rain 	Barom
-----	----	-----	------	-----	-----	------	------	-------	-----	-----
00:00	49.1	49.1	49.1	69	39.4	0	0	---	0.00	29.979 
00:05	48.9	48.9	48.9	69	39.2	0	1	248	0.00	29.979 
00:10	48.9	48.9	48.9	70	39.6	0	1	248	0.00	29.979 
00:15	48.9	48.9	48.9	70	39.6	0	1	248	0.00	29.976 
00:20	48.9	48.9	48.9	70	39.6	0	1	248	0.00	29.976 
00:25	48.9	48.9	48.9	70	39.6	0	1	248	0.00	29.976 
00:30	48.9	48.9	48.9	70	39.6	0	2	248	0.00	29.970 
00:35	48.9	48.9	48.9	70	39.6	0	2	248	0.00	29.970 
00:40	49.1	49.1	49.1	70	39.7	0	1	248	0.00	29.970 
00:45	49.1	49.1	49.1	70	39.7	0	1	248	0.00	29.971 
00:50	49.1	49.1	49.1	71	40.1	0	1	248	0.00	29.971 
00:55	49.1	49.1	49.1	71	40.1	0	1	248	0.00	29.971 
01:00	49.1	49.1	49.1	71	40.1	0	1	248	0.00	29.962 
01:05	49.1	49.1	49.1	72	40.5	0	1	248	0.00	29.962 
01:10	48.9	48.9	48.9	73	40.6	0	1	248	0.00	29.962 
01:15	48.9	48.9	48.9	73	40.6	0	1	248	0.00	29.960 
01:20	48.8	48.8	48.8	73	40.5	0	1	248	0.00	29.960 
01:25	48.8	48.8	48.8	74	40.9	0	1	248	0.00	29.960 
01:30	48.8	48.8	48.8	74	40.9	0	1	248	0.00	29.962 
01:35	48.6	48.6	48.6	74	40.7	0	1	248	0.00	29.962 
01:40	48.6	48.6	48.6	74	40.7	0	1	248	0.00	29.962 
01:45	48.6	48.6	48.6	75	41.0	0	1	248	0.00	29.968 
01:50	48.6	48.6	48.6	75	41.0	0	1	248	0.00	29.968 
01:55	48.6	48.6	48.6	75	41.0	0	1	248	0.00	29.968 
02:00	48.6	48.6	48.6	75	41.0	0	1	248	0.00	29.963 
02:05	48.6	48.6	48.6	75	41.0	0	2	248	0.00	29.963 
02:10	48.6	48.6	48.6	75	41.0	0	2	248	0.00	29.963 
02:15	48.5	48.5	48.5	76	41.3	0	2	248	0.00	29.960 
02:20	48.5	48.5	48.5	76	41.3	0	1	248	0.00	29.960 
02:25	48.5	48.5	48.5	76	41.3	0	1	248	0.00	29.960 
02:30	48.5	48.5	48.5	77	41.6	0	1	248	0.00	29.957 
02:35	48.3	48.3	48.3	77	41.4	0	1	248	0.00	29.957 
02:40	48.3	48.3	48.3	77	41.4	0	2	248	0.00	29.957 
02:45	48.3	48.3	48.3	78	41.8	0	1	248	0.00	29.952 
02:50	48.2	48.2	48.2	78	41.7	0	1	248	0.00	29.952 
02:55	48.2	48.2	48.2	78	41.7	0	1	248	0.00	29.952 
03:00	48.0	48.0	48.0	78	41.5	0	1	248	0.00	29.946 
03:05	47.9	47.9	47.9	79	41.7	0	1	248	0.00	29.946 
03:10	47.7	47.7	47.7	79	41.5	0	1	248	0.00	29.946 
03:15	47.6	47.6	47.6	80	41.7	0	1	248	0.00	29.942 
03:20	47.4	47.4	47.4	80	41.5	0	0	---	0.00	29.942 
03:25	47.3	47.3	47.3	81	41.8	0	1	248	0.00	29.942 
03:30	47.3	47.3	47.3	81	41.8	0	1	248	0.00	29.933 
03:35	47.3	47.3	47.3	81	41.8	0	1	248	0.00	29.933 
03:40	47.1	47.1	47.1	81	41.6	0	0	---	0.00	29.933 
03:45	47.1	47.1	47.1	82	41.9	0	1	248	0.00	29.927 
03:50	47.0	47.0	47.0	82	41.8	0	1	248	0.00	29.927 
03:55	47.0	47.0	47.0	82	41.8	0	1	248	0.00	29.927 
04:00	46.8	46.8	46.8	82	41.6	0	1	248	0.00	29.923 
04:05	46.8	46.8	46.8	83	41.9	0	1	248	0.00	29.923 
04:10	46.8	46.8	46.8	83	41.9	0	0	---	0.00	29.923 
04:15	46.7	46.7	46.7	83	41.8	0	0	---	0.00	29.914 
04:20	46.5	46.5	46.5	83	41.6	0	0	---	0.00	29.914 
04:25	46.5	46.5	46.5	83	41.6	0	1	248	0.00	29.914 
04:30	46.4	46.4	46.4	84	41.8	0	0	---	0.00	29.913 
04:35	46.4	46.4	46.4	84	41.8	0	1	248	0.00	29.913 
04:40	46.4	46.4	46.4	84	41.8	0	0	---	0.00	29.913 
04:45	46.4	46.4	46.4	84	41.8	0	0	---	0.00	29.902 
04:50	46.5	46.5	46.5	84	41.9	0	1	248	0.00	29.902 
04:55	46.5	46.5	46.5	84	41.9	0	1	248	0.00	29.902 
05:00	46.5	46.5	46.5	84	41.9	0	0	---	0.00	29.898 
05:05	46.7	46.7	46.7	84	42.1	0	1	248	0.00	29.898 
05:10	46.7	46.7	46.7	84	42.1	0	0	---	0.00	29.898 
05:15	46.8	46.8	46.8	84	42.2	0	1	248	0.00	29.897 
05:20	46.8	46.8	46.8	84	42.2	0	1	248	0.00	29.897 
05:25	47.0	47.0	47.0	84	42.4	0	1	248	0.00	29.897 
05:30	47.0	47.0	47.0	84	42.4	0	1	248	0.00	29.894 
05:35	47.0	47.0	47.0	84	42.4	0	1	248	0.00	29.894 
05:40	47.1	47.1	47.1	84	42.5	0	0	---	0.00	29.894 
05:45	47.1	47.1	47.1	84	42.5	0	1	248	0.00	29.891 
05:50	47.1	47.1	47.1	84	42.5	0	1	248	0.00	29.891 
05:55	47.1	47.1	47.1	84	42.5	0	0	---	0.00	29.891 
06:00	47.3	47.3	47.3	84	42.7	0	0	---	0.00	29.885 
06:05	47.3	47.3	47.3	84	42.7	0	1	248	0.00	29.885 
06:10	47.4	47.4	47.4	84	42.8	0	1	248	0.00	29.885 
06:15	47.4	47.4	47.4	84	42.8	0	0	---	0.00	29.882 
06:20	47.6	47.6	47.6	84	43.0	0	1	248	0.00	29.882 
06:25	47.6	47.6	47.6	84	43.0	0	1	248	0.00	29.882 
06:30	47.7	47.7	47.7	84	43.1	0	1	248	0.00	29.880 
06:35	47.7	47.7	47.7	84	43.1	0	0	---	0.00	29.880 
06:40	47.9	47.9	47.9	84	43.3	0	1	248	0.00	29.880 
06:45	48.0	48.0	48.0	84	43.4	0	1	248	0.00	29.872 
06:50	48.0	48.0	48.0	84	43.4	0	1	248	0.00	29.872 
06:55	48.2	48.2	48.2	84	43.6	0	2	248	0.00	29.872 
07:00	48.3	48.3	48.3	84	43.7	0	2	248	0.00	29.866 
07:05	48.3	48.3	48.3	84	43.7	0	1	248	0.00	29.866 
07:10	48.5	48.5	48.5	83	43.6	0	1	248	0.00	29.866 
07:15	48.6	48.6	48.6	83	43.7	0	1	248	0.00	29.867 
07:20	48.8	48.8	48.8	83	43.9	0	3	248	0.00	29.867 
07:25	48.8	48.8	48.8	83	43.9	0	2	248	0.00	29.867 
07:30	48.9	48.9	48.9	83	44.0	0	1	248	0.00	29.863 
07:35	48.9	48.9	48.9	83	44.0	0	1	248	0.00	29.863 
07:40	48.9	48.9	48.9	84	44.3	0	2	248	0.00	29.863 
07:45	48.8	48.8	48.8	84	44.2	0	1	248	0.00	29.859 
07:50	48.6	48.6	48.6	85	44.3	0	1	248	0.00	29.859 
07:55	48.6	48.6	48.6	85	44.3	0	1	248	0.00	29.859 
08:00	48.6	48.6	48.6	85	44.3	0	1	248	0.00	29.858 
08:05	48.6	48.6	48.6	85	44.3	0	1	248	0.00	29.858 
08:10	48.8	48.8	48.8	85	44.5	0	2	248	0.00	29.858 
08:15	48.8	48.8	48.8	85	44.5	0	1	248	0.00	29.856 
08:20	48.9	48.9	48.9	84	44.3	0	1	248	0.00	29.856 
08:25	49.1	49.1	49.1	84	44.5	0	1	248	0.00	29.856 
08:30	49.2	49.2	49.2	84	44.6	0	3	248	0.00	29.857 
08:35	49.4	49.4	49.4	84	44.8	0	1	248	0.00	29.857 
08:40	49.4	49.4	49.4	84	44.8	0	1	248	0.00	29.857 
08:45	49.5	49.5	49.5	83	44.6	0	1	248	0.00	29.858 
08:50	49.6	49.6	49.6	83	44.7	0	1	248	0.00	29.858 
08:55	49.6	49.6	49.6	83	44.7	0	2	248	0.00	29.858 
09:00	49.8	49.8	49.8	83	44.8	0	1	248	0.00	29.855 
09:05	49.9	49.9	49.9	83	44.9	0	1	248	0.00	29.855 
09:10	50.1	50.1	50.1	83	45.1	0	1	248	0.00	29.855 
09:15	50.2	50.2	50.2	82	44.9	0	2	248	0.00	29.854 
09:20	50.4	50.4	50.4	82	45.1	0	3	112	0.00	29.854 
09:25	50.4	50.4	50.4	81	44.8	0	1	112	0.00	29.854 
09:30	50.5	50.5	50.5	81	44.9	0	2	248	0.00	29.851 
09:35	50.5	50.5	50.5	81	44.9	0	3	270	0.00	29.851 
09:40	50.7	50.7	50.7	81	45.1	0	2	270	0.00	29.851 
09:45	50.8	50.8	50.8	81	45.2	0	1	270	0.00	29.852 
09:50	50.8	50.8	50.8	81	45.2	0	1	270	0.00	29.852 
09:55	51.0	51.0	51.0	81	45.4	0	1	270	0.00	29.852 
10:00	51.1	51.1	51.1	81	45.5	0	2	270	0.00	29.849 
10:05	51.4	51.4	51.4	81	45.8	0	3	270	0.00	29.849 
10:10	51.9	51.9	51.9	81	46.3	0	1	270	0.00	29.849 
10:15	52.3	52.3	52.3	80	46.3	0	2	270	0.00	29.846 
10:20	53.1	53.1	53.1	80	47.1	0	2	270	0.00	29.846 
10:25	53.3	53.3	53.3	77	46.3	1	4	270	0.00	29.846 
10:30	53.5	53.5	53.5	77	46.5	0	2	292	0.00	29.845 
10:35	53.5	53.5	53.5	76	46.1	1	4	292	0.00	29.845 
10:40	53.6	53.6	53.6	76	46.2	0	4	292	0.00	29.845 
10:45	53.8	53.8	53.8	77	46.8	0	2	292	0.00	29.846 
10:50	53.9	53.9	53.9	77	46.9	0	3	292	0.00	29.846 
10:55	53.9	53.9	53.9	76	46.5	0	2	270	0.00	29.846 
11:00	54.1	54.1	54.1	77	47.0	0	1	292	0.00	29.847 
11:05	54.1	54.1	54.1	76	46.7	0	1	292	0.00	29.847 
11:10	54.1	54.1	54.1	76	46.7	0	3	270	0.00	29.847 
11:15	53.9	53.9	53.9	76	46.5	0	1	270	0.00	29.850 
11:20	53.9	53.9	53.9	77	46.9	0	4	270	0.00	29.850 
11:25	53.9	53.9	53.9	77	46.9	0	2	270	0.00	29.850 
11:30	53.9	53.9	53.9	77	46.9	0	2	338	0.00	29.846 
11:35	53.9	53.9	53.9	77	46.9	0	1	338	0.00	29.846 
11:40	53.9	53.9	53.9	77	46.9	0	1	338	0.00	29.846 
11:45	53.9	53.9	53.9	78	47.2	0	1	338	0.00	29.845 
11:50	53.8	53.8	53.8	79	47.4	0	1	338	0.00	29.845 
11:55	53.5	53.5	53.5	80	47.5	0	2	338	0.01	29.845 
12:00	53.1	53.1	53.1	82	47.8	0	1	338	0.00	29.835 
12:05	52.9	52.9	52.9	83	47.9	0	0	---	0.00	29.835 
12:10	52.8	52.8	52.8	85	48.4	0	0	---	0.00	29.835 
12:15	53.3	53.3	53.3	86	49.2	0	1	338	0.00	29.833 
12:20	53.9	53.9	53.9	86	49.8	0	1	338	0.00	29.833 
12:25	54.4	54.4	54.4	85	50.0	0	1	338	0.00	29.833 
12:30	54.7	54.7	54.7	84	50.0	0	2	315	0.00	29.828 
12:35	55.1	55.1	55.1	83	50.0	0	1	315	0.00	29.828 
12:40	55.1	55.1	55.1	81	49.4	0	1	315	0.00	29.828 
12:45	55.0	55.0	55.0	81	49.3	0	1	315	0.00	29.828 
12:50	54.8	54.8	54.8	81	49.1	0	1	315	0.00	29.828 
12:55	54.5	54.5	54.5	81	48.8	0	1	315	0.00	29.828 
13:00	54.4	54.4	54.4	82	49.0	0	1	315	0.00	29.822 
13:05	54.2	54.2	54.2	82	48.8	0	3	315	0.00	29.822 
13:10	54.4	54.4	54.4	82	49.0	0	1	315	0.00	29.822 
13:15	54.4	54.4	54.4	82	49.0	0	1	315	0.00	29.815 
13:20	54.5	54.5	54.5	82	49.1	0	3	315	0.00	29.815 
13:25	54.5	54.5	54.5	82	49.1	0	1	22	0.00	29.815 
13:30	54.7	54.7	54.7	82	49.3	0	1	315	0.00	29.809 
13:35	54.8	54.8	54.8	81	49.1	0	1	315	0.00	29.809 
13:40	55.1	55.1	55.1	82	49.7	0	1	315	0.00	29.809 
13:45	55.3	55.3	55.3	82	49.9	0	1	315	0.00	29.799 
13:50	55.3	55.3	55.3	82	49.9	0	1	315	0.00	29.799 
13:55	55.1	55.1	55.1	82	49.7	0	1	315	0.00	29.799 
14:00	55.1	55.1	55.1	83	50.0	0	1	315	0.00	29.795 
14:05	54.8	54.8	54.8	83	49.7	0	2	0	0.00	29.795 
14:10	54.7	54.7	54.7	84	50.0	0	3	0	0.00	29.795 
14:15	54.7	54.7	54.7	84	50.0	0	2	0	0.00	29.795 
14:20	54.7	54.7	54.7	84	50.0	0	1	0	0.00	29.795 
14:25	54.7	54.7	54.7	84	50.0	0	1	0	0.00	29.795 
14:30	54.8	54.8	54.8	84	50.1	0	0	---	0.00	29.798 
14:35	54.8	54.8	54.8	84	50.1	0	1	0	0.00	29.798 
14:40	54.8	54.8	54.8	83	49.7	0	1	0	0.00	29.798 
14:45	54.7	54.7	54.7	83	49.6	0	0	---	0.00	29.799 
14:50	54.7	54.7	54.7	83	49.6	0	1	270	0.00	29.799 
14:55	54.7	54.7	54.7	83	49.6	0	0	---	0.00	29.799 
15:00	54.8	54.8	54.8	84	50.1	0	0	---	0.00	29.798 
15:05	54.8	54.8	54.8	83	49.7	0	1	270	0.00	29.798 
15:10	55.0	55.0	55.0	83	49.9	0	1	270	0.00	29.798 
15:15	55.0	55.0	55.0	83	49.9	0	1	270	0.00	29.797 
15:20	55.0	55.0	55.0	83	49.9	0	1	270	0.00	29.797 
15:25	55.1	55.1	55.1	84	50.4	0	0	---	0.00	29.797 
15:30	55.1	55.1	55.1	83	50.0	0	1	270	0.00	29.793 
15:35	55.3	55.3	55.3	83	50.2	0	1	270	0.00	29.793 
15:40	55.4	55.4	55.4	83	50.3	0	1	270	0.00	29.793 
15:45	55.6	55.6	55.6	83	50.5	0	1	270	0.00	29.791 
15:50	55.7	55.7	55.7	83	50.6	0	1	270	0.00	29.791 
15:55	55.7	55.7	55.7	83	50.6	0	1	270	0.00	29.791 
16:00	55.7	55.7	55.7	83	50.6	0	1	270	0.00	29.794 
16:05	55.9	55.9	55.9	83	50.8	0	1	270	0.00	29.794 
16:10	56.0	56.0	56.0	83	50.9	0	0	---	0.00	29.794 
16:15	56.2	56.2	56.2	83	51.1	0	1	270	0.00	29.796 
16:20	56.3	56.3	56.3	82	50.9	0	1	270	0.00	29.796 
16:25	56.5	56.5	56.5	82	51.1	0	1	270	0.00	29.796 
16:30	56.6	56.6	56.6	82	51.2	0	1	270	0.00	29.795 
16:35	56.7	56.7	56.7	82	51.3	0	1	270	0.00	29.795 
16:40	56.7	56.7	56.7	82	51.3	0	1	270	0.00	29.795 
16:45	56.9	56.9	56.9	82	51.5	0	0	---	0.00	29.795 
16:50	57.0	57.0	57.0	82	51.6	0	0	---	0.00	29.795 
16:55	57.2	57.2	57.2	82	51.8	0	0	---	0.00	29.795 
17:00	57.3	57.3	57.3	81	51.5	0	1	270	0.00	29.796 
17:05	57.3	57.3	57.3	81	51.5	0	1	270	0.00	29.796 
17:10	57.5	57.5	57.5	81	51.7	0	1	270	0.00	29.796 
17:15	57.5	57.5	57.5	81	51.7	0	1	270	0.00	29.795 
17:20	57.3	57.3	57.3	81	51.5	0	0	---	0.00	29.795 
17:25	57.2	57.2	57.2	81	51.4	0	1	270	0.00	29.795 
17:30	57.0	57.0	57.0	81	51.2	0	0	---	0.00	29.797 
17:35	56.9	56.9	56.9	82	51.5	0	0	---	0.00	29.797 
17:40	56.9	56.9	56.9	82	51.5	0	0	---	0.00	29.797 
17:45	56.9	56.9	56.9	82	51.5	0	0	---	0.00	29.800 
17:50	56.9	56.9	56.9	83	51.8	0	0	---	0.00	29.800 
17:55	57.0	57.0	57.0	83	51.9	0	0	---	0.00	29.800 
18:00	57.0	57.0	57.0	83	51.9	0	0	---	0.00	29.807 
18:05	57.0	57.0	57.0	83	51.9	0	0	---	0.00	29.807 
18:10	56.7	56.7	56.7	83	51.6	0	0	---	0.00	29.807 
18:15	56.5	56.5	56.5	83	51.4	0	0	---	0.00	29.813 
18:20	56.3	56.3	56.3	83	51.2	0	0	---	0.00	29.813 
18:25	56.0	56.0	56.0	84	51.2	0	0	---	0.00	29.813 
18:30	55.9	55.9	55.9	84	51.1	0	0	---	0.00	29.814 
18:35	55.6	55.6	55.6	85	51.2	0	0	---	0.00	29.814 
18:40	55.4	55.4	55.4	85	51.0	0	0	---	0.00	29.814 
18:45	55.1	55.1	55.1	85	50.7	0	0	---	0.00	29.824 
18:50	54.8	54.8	54.8	86	50.7	0	0	---	0.00	29.824 
18:55	54.7	54.7	54.7	87	50.9	0	0	---	0.00	29.824 
19:00	54.5	54.5	54.5	87	50.7	0	0	---	0.00	29.836 
19:05	54.4	54.4	54.4	88	50.9	0	0	---	0.00	29.836 
19:10	54.4	54.4	54.4	88	50.9	0	0	---	0.00	29.836 
19:15	54.4	54.4	54.4	88	50.9	0	0	---	0.00	29.846 
19:20	54.4	54.4	54.4	88	50.9	0	0	---	0.00	29.846 
19:25	54.5	54.5	54.5	88	51.0	0	0	---	0.00	29.846 
19:30	54.7	54.7	54.7	88	51.2	0	1	270	0.00	29.845 
19:35	55.0	55.0	55.0	86	50.9	0	1	270	0.00	29.845 
19:40	55.4	55.4	55.4	83	50.3	0	3	270	0.00	29.845 
19:45	55.9	55.9	55.9	80	49.8	0	1	270	0.00	29.856 
19:50	56.2	56.2	56.2	76	48.7	2	5	270	0.00	29.856 
19:55	56.5	56.5	56.5	75	48.7	1	5	315	0.00	29.856 
20:00	56.5	56.5	56.5	74	48.3	1	4	315	0.00	29.857 
20:05	56.5	56.5	56.5	74	48.3	0	4	315	0.00	29.857 
20:10	56.5	56.5	56.5	74	48.3	0	1	315	0.00	29.857 
20:15	56.3	56.3	56.3	75	48.5	0	3	315	0.00	29.862 
20:20	56.3	56.3	56.3	74	48.1	1	4	315	0.00	29.862 
20:25	56.2	56.2	56.2	74	48.0	1	4	292	0.00	29.862 
20:30	56.2	56.2	56.2	74	48.0	1	4	292	0.00	29.862 
20:35	56.0	56.0	56.0	75	48.2	1	4	292	0.00	29.862 
20:40	55.9	55.9	55.9	75	48.1	0	2	292	0.00	29.862 
20:45	55.7	55.7	55.7	76	48.3	0	1	292	0.00	29.859 
20:50	55.6	55.6	55.6	76	48.2	0	1	292	0.00	29.859 
20:55	55.6	55.6	55.6	77	48.5	0	1	292	0.00	29.859 
21:00	55.4	55.4	55.4	77	48.3	0	3	292	0.00	29.860 
21:05	55.3	55.3	55.3	77	48.2	1	3	292	0.00	29.860 
21:10	55.3	55.3	55.3	77	48.2	0	2	292	0.00	29.860 
21:15	55.1	55.1	55.1	77	48.0	0	2	292	0.00	29.863 
21:20	55.1	55.1	55.1	78	48.4	0	1	292	0.00	29.863 
21:25	55.0	55.0	55.0	78	48.3	0	1	292	0.00	29.863 
21:30	54.8	54.8	54.8	79	48.4	0	3	292	0.00	29.872 
21:35	54.7	54.7	54.7	79	48.3	0	3	292	0.00	29.872 
21:40	54.7	54.7	54.7	79	48.3	1	5	270	0.00	29.872 
21:45	54.5	54.5	54.5	79	48.1	2	6	270	0.00	29.874 
21:50	54.4	54.4	54.4	79	48.0	1	5	315	0.00	29.874 
21:55	54.2	54.2	54.2	79	47.8	2	5	270	0.00	29.874 
22:00	54.1	54.1	54.1	79	47.7	1	3	270	0.00	29.879 
22:05	53.9	53.9	53.9	79	47.5	2	5	315	0.00	29.879 
22:10	53.8	53.8	53.8	80	47.8	1	5	270	0.00	29.879 
22:15	53.8	53.8	53.8	80	47.8	2	5	315	0.00	29.881 
22:20	53.6	53.6	53.6	80	47.6	1	4	315	0.00	29.881 
22:25	53.5	53.5	53.5	80	47.5	1	4	315	0.00	29.881 
22:30	53.5	53.5	53.5	80	47.5	1	4	315	0.00	29.887 
22:35	53.3	53.3	53.3	80	47.3	2	5	292	0.00	29.887 
22:40	53.3	53.3	53.3	80	47.3	1	4	315	0.00	29.887 
22:45	53.2	53.2	53.2	80	47.2	1	5	315	0.00	29.889 
22:50	53.2	53.2	53.2	80	47.2	1	6	292	0.00	29.889 
22:55	53.1	53.1	53.1	80	47.1	2	4	292	0.00	29.889 
23:00	52.9	52.9	52.9	81	47.2	0	3	338	0.00	29.891 
23:05	52.9	52.9	52.9	80	46.9	0	2	338	0.00	29.891 
23:10	52.8	52.8	52.8	80	46.8	1	4	338	0.00	29.891 
23:15	52.8	52.8	52.8	80	46.8	1	3	292	0.00	29.890 
23:20	52.6	52.6	52.6	79	46.3	1	4	292	0.00	29.890 
23:25	52.6	52.6	52.6	79	46.3	1	4	292	0.00	29.890 
23:30	52.5	52.5	52.5	78	45.8	1	4	315	0.00	29.890 
23:35	52.5	52.5	52.5	78	45.8	1	4	315	0.00	29.890 
23:40	52.5	52.5	52.5	77	45.5	1	4	315	0.00	29.890 
23:45	52.3	52.3	52.3	77	45.3	1	5	315	0.00	29.894 
23:50	52.3	52.3	52.3	77	45.3	0	3	315	0.00	29.894 
23:55	52.2	52.2	52.2	77	45.2	0	3	315	0.00	29.894 

CoCoRaHS
IN-AL-39
A2 Web Hosting
Creative Commons License
GoDaddy
search engine by freefind advanced

loaded 2018-11-19 10:16:30 • last modified 2010-11-18 10:43:29
Privacy PolicyDisclaimer
• wx.awcolley.com is powered by PmWiki v.2002016 •
• all content (unless otherwise noted) © 2018 A W Colley